Time;durP1;ratioP1;P1;durP2;ratioP2;P2;SDS_P1;SDS_P2;PMS_P1;PMS_P2;Temp;Humidity;BMP_temperature;BMP_pressure;BME280_temperature;BME280_humidity;BME280_pressure;Samples;Min_cycle;Max_cycle;Signal;HPM_P1;HPM_P2
2022/04/23 00:01:20;;;;;;;35.83;23.70;;;10.30;91.20;;;;;;5037123;28;20029;-76
2022/04/23 00:03:46;;;;;;;37.80;25.15;;;10.30;91.10;;;;;;5052674;28;20546;-76
2022/04/23 00:06:12;;;;;;;33.15;23.58;;;10.30;91.20;;;;;;5051115;28;20124;-76
2022/04/23 00:08:38;;;;;;;37.55;23.25;;;10.30;91.10;;;;;;5051104;28;20037;-76
2022/04/23 00:11:03;;;;;;;31.48;21.25;;;10.30;91.10;;;;;;5054068;28;20036;-76
2022/04/23 00:13:29;;;;;;;34.22;23.05;;;10.40;91.20;;;;;;5054967;28;20078;-76
2022/04/23 00:15:55;;;;;;;46.10;24.20;;;10.40;91.20;;;;;;5055202;28;20421;-76
2022/04/23 00:18:21;;;;;;;33.45;21.33;;;10.50;91.20;;;;;;5052737;28;20033;-78
2022/04/23 00:20:46;;;;;;;34.30;21.58;;;10.50;91.10;;;;;;5036994;28;20036;-76
2022/04/23 00:23:13;;;;;;;35.90;22.15;;;10.50;91.00;;;;;;5054141;28;20406;-78
2022/04/23 00:25:39;;;;;;;35.92;22.73;;;10.60;90.90;;;;;;5054835;28;20498;-74
2022/04/23 00:28:06;;;;;;;30.15;22.65;;;10.60;90.90;;;;;;5054774;28;20474;-76
2022/04/23 00:30:33;;;;;;;32.83;23.67;;;10.60;90.90;;;;;;5036530;28;20041;-77
2022/04/23 00:33:03;;;;;;;31.33;22.88;;;10.60;90.90;;;;;;5054924;28;20068;-76
2022/04/23 00:35:29;;;;;;;29.10;20.83;;;10.60;90.80;;;;;;5055372;28;20502;-76
2022/04/23 00:37:55;;;;;;;31.75;21.92;;;10.60;90.70;;;;;;5056692;28;20347;-76
2022/04/23 00:40:24;;;;;;;36.35;22.60;;;10.60;90.70;;;;;;5037429;28;20469;-77
2022/04/23 00:42:55;;;;;;;33.70;23.08;;;10.70;90.70;;;;;;5051222;28;20043;-77
2022/04/23 00:45:25;;;;;;;30.73;23.45;;;10.70;90.70;;;;;;5054531;28;20021;-77
2022/04/23 00:47:52;;;;;;;29.00;21.77;;;10.70;90.70;;;;;;5054486;28;20386;-76
2022/04/23 00:50:22;;;;;;;31.70;22.65;;;10.70;90.60;;;;;;5054201;28;20090;-77
2022/04/23 00:53:09;;;;;;;37.03;23.15;;;10.70;90.50;;;;;;5054418;28;20059;-77
2022/04/23 00:55:36;;;;;;;37.50;24.00;;;10.70;90.60;;;;;;5053769;28;20502;-76
2022/04/23 00:58:02;;;;;;;39.88;23.40;;;10.70;90.60;;;;;;5053512;28;20037;-76
2022/04/23 01:00:28;;;;;;;42.78;23.77;;;10.80;90.60;;;;;;5050847;28;20028;-76
2022/04/23 01:02:55;;;;;;;35.40;24.50;;;10.70;90.60;;;;;;5054133;28;20105;-76
2022/04/23 01:05:26;;;;;;;35.22;23.42;;;10.70;90.60;;;;;;5054094;28;20065;-78
2022/04/23 01:07:53;;;;;;;40.17;22.98;;;10.70;90.60;;;;;;5050436;28;20107;-77
2022/04/23 01:10:19;;;;;;;38.80;23.95;;;10.80;90.60;;;;;;5053848;28;20025;-78
2022/04/23 01:12:46;;;;;;;36.08;23.75;;;10.80;90.50;;;;;;5053893;28;20128;-77
2022/04/23 01:15:16;;;;;;;31.17;23.33;;;10.80;90.40;;;;;;5053346;28;20032;-77
2022/04/23 01:17:42;;;;;;;34.67;25.02;;;10.80;90.40;;;;;;5053695;28;20036;-77
2022/04/23 01:20:11;;;;;;;37.42;25.02;;;10.80;90.40;;;;;;5053388;28;20028;-76
2022/04/23 01:22:38;;;;;;;33.72;22.90;;;10.80;90.40;;;;;;5053618;28;20401;-76
2022/04/23 01:25:06;;;;;;;39.47;23.75;;;10.80;90.40;;;;;;5054272;28;20370;-76
2022/04/23 01:27:34;;;;;;;30.10;22.75;;;10.80;90.40;;;;;;5053961;28;20028;-77
2022/04/23 01:30:00;;;;;;;37.28;22.90;;;10.80;90.40;;;;;;5035569;28;20033;-76
2022/04/23 01:32:27;;;;;;;33.60;24.27;;;10.80;90.40;;;;;;5053455;28;20106;-76
2022/04/23 01:34:52;;;;;;;32.60;24.13;;;10.80;90.40;;;;;;5052700;28;20402;-75
2022/04/23 01:37:18;;;;;;;36.28;24.15;;;10.80;90.40;;;;;;5050887;28;20017;-77
2022/04/23 01:39:46;;;;;;;35.30;24.80;;;10.70;90.40;;;;;;5052982;28;20127;-77
2022/04/23 01:42:13;;;;;;;40.72;24.90;;;10.70;90.40;;;;;;5053349;28;20033;-78
2022/04/23 01:44:39;;;;;;;28.10;22.83;;;10.70;90.40;;;;;;5053350;28;20108;-78
2022/04/23 01:47:04;;;;;;;31.52;23.60;;;10.70;90.70;;;;;;5053209;28;20100;-76
2022/04/23 01:49:30;;;;;;;36.75;25.63;;;10.70;90.40;;;;;;5052487;28;20078;-77
2022/04/23 01:51:56;;;;;;;37.90;25.17;;;10.70;90.40;;;;;;5053205;28;20482;-76
2022/04/23 01:54:22;;;;;;;34.03;23.90;;;10.80;90.40;;;;;;5052980;28;20116;-77
2022/04/23 01:56:48;;;;;;;39.53;24.52;;;10.80;90.40;;;;;;5049780;28;20561;-77
2022/04/23 01:59:14;;;;;;;34.53;23.88;;;10.70;90.30;;;;;;5052990;28;20025;-76
2022/04/23 02:01:41;;;;;;;38.67;25.10;;;10.70;90.30;;;;;;5035001;28;20063;-76
2022/04/23 02:04:08;;;;;;;33.30;23.63;;;10.70;90.30;;;;;;5053045;28;20438;-77
2022/04/23 02:06:34;;;;;;;34.40;25.47;;;10.70;90.30;;;;;;5052173;28;20033;-77
2022/04/23 02:09:03;;;;;;;33.47;23.85;;;10.70;90.30;;;;;;5052882;28;20289;-76
2022/04/23 02:11:29;;;;;;;37.47;25.02;;;10.70;90.40;;;;;;5052795;28;20021;-78
2022/04/23 02:13:55;;;;;;;34.45;23.77;;;10.70;90.40;;;;;;5049397;28;20044;-78
2022/04/23 02:16:21;;;;;;;35.95;24.90;;;10.80;90.50;;;;;;5053096;28;20025;-77
2022/04/23 02:18:46;;;;;;;32.30;23.60;;;10.70;90.50;;;;;;5052582;28;20029;-76
2022/04/23 02:21:12;;;;;;;34.10;22.90;;;10.70;90.60;;;;;;5052573;28;20151;-77
2022/04/23 02:23:38;;;;;;;35.53;26.05;;;10.70;90.70;;;;;;5051797;28;20493;-76
2022/04/23 02:26:05;;;;;;;32.78;25.42;;;10.70;90.80;;;;;;5052550;28;20032;-75
2022/04/23 02:28:31;;;;;;;38.25;25.35;;;10.70;90.90;;;;;;5052352;28;20025;-75
2022/04/23 02:30:57;;;;;;;32.58;25.13;;;10.70;91.30;;;;;;5052366;28;20033;-77
2022/04/23 02:33:23;;;;;;;30.70;26.15;;;10.70;91.20;;;;;;5051599;28;20184;-76
2022/04/23 02:35:50;;;;;;;34.50;26.98;;;10.60;91.40;;;;;;5052199;28;20503;-75
2022/04/23 02:38:17;;;;;;;39.30;26.63;;;10.60;91.70;;;;;;5052205;28;20021;-75
2022/04/23 02:40:45;;;;;;;32.35;26.98;;;10.50;92.00;;;;;;5051646;28;20033;-75
2022/04/23 02:43:12;;;;;;;36.72;26.05;;;10.40;92.30;;;;;;5052123;28;20033;-75
2022/04/23 02:45:39;;;;;;;34.42;25.95;;;10.30;92.60;;;;;;5048838;28;20036;-76
2022/04/23 02:48:05;;;;;;;33.72;26.33;;;10.20;93.00;;;;;;5052383;28;20087;-76
2022/04/23 02:50:33;;;;;;;36.75;27.83;;;10.10;92.90;;;;;;5052502;28;20083;-75
2022/04/23 02:52:59;;;;;;;;;;;10.00;93.00;;;;;;5052766;28;20083;-76
2022/04/23 02:55:26;;;;;;;39.65;27.33;;;9.90;92.80;;;;;;5033422;28;19955;-76
2022/04/23 02:57:52;;;;;;;45.58;28.90;;;9.80;93.40;;;;;;5034380;28;20051;-75
2022/04/23 03:00:19;;;;;;;35.47;28.48;;;9.70;93.80;;;;;;5049685;28;20084;-75
2022/04/23 03:02:47;;;;;;;37.75;30.08;;;9.70;94.30;;;;;;5033844;28;20025;-75
2022/04/23 03:05:15;;;;;;;39.97;29.10;;;9.70;94.40;;;;;;5052594;28;20017;-75
2022/04/23 03:07:41;;;;;;;43.45;32.13;;;9.80;94.60;;;;;;5054944;28;20082;-76
2022/04/23 03:10:09;;;;;;;44.75;31.92;;;9.70;95.00;;;;;;5054880;28;20068;-76
2022/04/23 03:12:36;;;;;;;44.80;31.42;;;9.70;95.30;;;;;;5051964;28;20099;-75
2022/04/23 03:15:04;;;;;;;38.53;31.17;;;9.60;95.60;;;;;;5034207;28;20055;-75
2022/04/23 03:17:30;;;;;;;40.15;31.60;;;9.60;95.90;;;;;;5051712;28;20265;-76
2022/04/23 03:19:57;;;;;;;45.47;32.23;;;9.60;96.20;;;;;;5051664;28;20109;-76
2022/04/23 03:22:23;;;;;;;42.67;32.15;;;9.60;96.50;;;;;;5051611;28;20018;-76
2022/04/23 03:24:49;;;;;;;41.83;32.00;;;9.70;96.50;;;;;;5051605;28;20032;-75
2022/04/23 03:27:15;;;;;;;40.67;31.00;;;9.70;96.20;;;;;;5051639;28;20021;-76
2022/04/23 03:29:41;;;;;;;40.92;31.20;;;9.60;96.10;;;;;;5050922;28;20429;-76
2022/04/23 03:32:07;;;;;;;47.97;33.70;;;9.60;96.10;;;;;;5051620;28;20375;-76
2022/04/23 03:34:33;;;;;;;42.00;30.65;;;9.60;96.40;;;;;;5051544;28;20021;-75
2022/04/23 03:36:59;;;;;;;47.50;31.48;;;9.60;96.80;;;;;;5051372;28;20435;-74
2022/04/23 03:39:25;;;;;;;45.85;32.10;;;9.60;97.00;;;;;;5051688;28;20450;-75
2022/04/23 03:41:51;;;;;;;44.00;32.53;;;9.60;97.20;;;;;;5052325;28;20021;-74
2022/04/23 03:44:17;;;;;;;45.38;32.97;;;9.60;97.40;;;;;;5051609;28;20115;-76
2022/04/23 03:46:42;;;;;;;47.65;32.83;;;9.70;97.50;;;;;;5055577;28;20051;-76
2022/04/23 03:49:08;;;;;;;44.72;34.05;;;9.70;97.40;;;;;;5055816;28;20075;-78
2022/04/23 03:51:35;;;;;;;42.53;34.15;;;9.70;97.50;;;;;;5055766;28;20025;-78
2022/04/23 03:54:01;;;;;;;42.85;33.25;;;9.80;97.60;;;;;;5055998;28;20103;-76
2022/04/23 03:56:27;;;;;;;42.03;31.75;;;9.80;97.40;;;;;;5055216;28;20040;-76
2022/04/23 03:58:54;;;;;;;46.20;30.92;;;9.80;97.20;;;;;;5055346;28;20035;-77
2022/04/23 04:01:19;;;;;;;45.30;33.00;;;9.80;97.00;;;;;;5053416;28;20028;-78
2022/04/23 04:03:45;;;;;;;37.15;32.30;;;9.90;96.90;;;;;;5044677;28;20487;-77
2022/04/23 04:06:11;;;;;;;42.65;33.03;;;9.90;96.90;;;;;;5055509;28;20025;-76
2022/04/23 04:08:37;;;;;;;38.88;31.65;;;9.80;96.90;;;;;;5055418;28;20094;-77
2022/04/23 04:11:03;;;;;;;47.92;34.35;;;9.80;97.20;;;;;;5055291;28;20033;-76
2022/04/23 04:13:28;;;;;;;44.42;32.47;;;9.80;97.30;;;;;;5055473;28;20022;-76
2022/04/23 04:15:55;;;;;;;43.58;31.00;;;9.80;97.30;;;;;;5037343;28;20024;-76
2022/04/23 04:18:22;;;;;;;42.45;32.45;;;9.80;97.40;;;;;;5054560;28;20029;-76
2022/04/23 04:20:49;;;;;;;44.95;31.45;;;9.80;97.50;;;;;;5054871;28;20048;-76
2022/04/23 04:23:19;;;;;;;40.60;31.00;;;9.90;97.50;;;;;;5054961;28;20071;-78
2022/04/23 04:25:47;;;;;;;46.50;31.92;;;10.00;97.40;;;;;;5054868;28;20028;-77
2022/04/23 04:28:13;;;;;;;;;;;10.10;97.40;;;;;;5055452;28;20021;-78
2022/04/23 04:33:23;;;;;;;43.03;30.00;;;10.20;96.90;;;;;;5054935;28;20544;-79
2022/04/23 04:35:48;;;;;;;35.85;30.83;;;10.30;96.80;;;;;;5053733;28;20049;-76
2022/04/23 04:38:14;;;;;;;43.70;33.05;;;10.30;96.80;;;;;;5054542;28;20397;-77
2022/04/23 04:40:40;;;;;;;41.78;31.48;;;10.30;96.90;;;;;;5033286;28;20117;-78
2022/04/23 04:43:07;;;;;;;42.72;32.05;;;10.30;96.90;;;;;;5035392;28;20029;-77
2022/04/23 04:45:33;;;;;;;50.38;31.52;;;10.40;96.90;;;;;;5054278;28;20082;-77
2022/04/23 04:47:58;;;;;;;42.65;32.35;;;10.40;96.70;;;;;;5054824;28;20424;-77
2022/04/23 04:50:24;;;;;;;41.30;28.48;;;10.40;96.60;;;;;;5054561;28;20036;-76
2022/04/23 04:52:50;;;;;;;35.40;29.15;;;10.40;96.30;;;;;;5054128;28;20021;-76
2022/04/23 04:55:16;;;;;;;37.53;29.60;;;10.40;96.30;;;;;;5053505;28;20371;-78
2022/04/23 04:57:42;;;;;;;41.80;30.60;;;10.50;96.20;;;;;;5054361;28;20035;-77
2022/04/23 05:00:08;;;;;;;39.40;29.98;;;10.50;96.00;;;;;;5054754;28;20058;-78
2022/04/23 05:02:34;;;;;;;50.22;36.20;;;10.50;96.00;;;;;;5054913;28;20021;-79
2022/04/23 05:05:00;;;;;;;48.17;35.95;;;10.50;96.00;;;;;;5054726;28;20032;-77
2022/04/23 05:07:26;;;;;;;44.95;33.17;;;10.60;95.90;;;;;;5053375;28;20096;-78
2022/04/23 05:09:51;;;;;;;46.63;34.38;;;10.60;95.90;;;;;;5036068;28;20148;-77
2022/04/23 05:12:17;;;;;;;50.05;33.67;;;10.60;95.90;;;;;;5054031;28;20427;-77
2022/04/23 05:14:43;;;;;;;49.53;32.78;;;10.60;95.90;;;;;;5036124;28;20108;-78
2022/04/23 05:17:09;;;;;;;46.70;33.28;;;10.60;95.80;;;;;;5053942;28;20056;-78
2022/04/23 05:19:35;;;;;;;46.45;33.67;;;10.70;95.80;;;;;;5035895;28;20055;-77
2022/04/23 05:22:00;;;;;;;46.72;31.55;;;10.70;95.80;;;;;;5035852;28;20033;-77
2022/04/23 05:24:26;;;;;;;48.75;32.30;;;10.70;95.70;;;;;;5052940;28;20036;-77
2022/04/23 05:26:52;;;;;;;41.15;30.70;;;10.70;95.70;;;;;;5053547;28;20111;-77
2022/04/23 05:29:18;;;;;;;36.97;30.88;;;10.70;95.60;;;;;;5053521;28;20044;-76
2022/04/23 05:31:43;;;;;;;41.63;32.65;;;10.70;95.60;;;;;;5053775;28;20029;-77
2022/04/23 05:34:09;;;;;;;42.08;31.45;;;10.60;95.50;;;;;;5053436;28;20025;-76
2022/04/23 05:36:35;;;;;;;45.03;30.92;;;10.70;95.40;;;;;;5053285;28;20124;-76
2022/04/23 05:39:00;;;;;;;41.22;32.42;;;10.70;95.20;;;;;;5053402;28;20046;-77
2022/04/23 05:41:26;;;;;;;44.90;31.77;;;10.80;95.10;;;;;;5034590;28;20113;-77
2022/04/23 05:43:52;;;;;;;44.63;32.15;;;10.80;94.90;;;;;;5049656;28;20107;-78
2022/04/23 05:46:18;;;;;;;42.83;31.88;;;11.00;94.80;;;;;;5053319;28;20159;-77
2022/04/23 05:48:44;;;;;;;38.38;30.13;;;11.00;94.60;;;;;;5053169;28;20029;-78
2022/04/23 05:51:10;;;;;;;39.10;31.00;;;11.00;94.50;;;;;;5053296;28;20033;-79
2022/04/23 05:53:36;;;;;;;38.65;30.95;;;11.10;94.30;;;;;;5053011;28;20021;-77
2022/04/23 05:56:02;;;;;;;37.10;29.77;;;11.20;94.30;;;;;;5052700;28;20052;-77
2022/04/23 05:58:28;;;;;;;40.33;28.88;;;11.30;94.00;;;;;;5052469;28;20021;-78
2022/04/23 06:00:54;;;;;;;37.53;27.48;;;11.60;93.70;;;;;;5053684;28;20021;-76
2022/04/23 06:03:20;;;;;;;32.42;27.98;;;11.80;93.10;;;;;;5053517;28;20024;-78
2022/04/23 06:05:46;;;;;;;33.63;28.02;;;12.10;92.50;;;;;;5052585;28;20029;-78
2022/04/23 06:08:12;;;;;;;46.88;30.77;;;12.30;92.00;;;;;;5052425;28;20044;-77
2022/04/23 06:10:38;;;;;;;33.40;28.95;;;12.50;91.90;;;;;;5052241;28;20321;-77
2022/04/23 06:13:06;;;;;;;45.72;31.88;;;12.70;91.30;;;;;;5052478;28;20442;-80
2022/04/23 06:15:32;;;;;;;47.55;33.70;;;12.90;90.60;;;;;;5051783;28;20057;-77
2022/04/23 06:17:58;;;;;;;37.42;27.15;;;13.00;90.10;;;;;;5052462;28;20466;-78
2022/04/23 06:20:24;;;;;;;36.75;27.30;;;13.60;89.30;;;;;;5052364;28;20078;-78
2022/04/23 06:22:49;;;;;;;35.08;26.90;;;15.20;87.70;;;;;;5034786;28;20060;-78
2022/04/23 06:25:15;;;;;;;32.80;27.05;;;17.10;78.30;;;;;;5034995;28;20020;-78
2022/04/23 06:27:41;;;;;;;30.30;26.25;;;18.20;73.30;;;;;;5052893;28;20025;-78
2022/04/23 06:30:10;;;;;;;32.88;26.50;;;19.10;68.60;;;;;;5052290;28;20043;-79
2022/04/23 06:32:39;;;;;;;33.08;26.40;;;19.80;65.90;;;;;;5051778;28;20446;-78
2022/04/23 06:35:06;;;;;;;28.63;25.45;;;20.70;62.80;;;;;;5052176;28;20119;-77
2022/04/23 06:37:38;;;;;;;33.50;26.65;;;21.90;59.20;;;;;;5052333;28;20159;-79
2022/04/23 06:40:04;;;;;;;36.72;25.58;;;23.00;56.00;;;;;;5034452;28;20119;-78
2022/04/23 06:42:30;;;;;;;30.77;26.45;;;23.80;53.80;;;;;;5052269;28;20090;-79
2022/04/23 06:44:55;;;;;;;32.25;24.83;;;24.00;52.00;;;;;;5052062;28;20533;-78
2022/04/23 06:47:21;;;;;;;30.55;26.33;;;24.50;50.00;;;;;;5048955;28;20025;-78
2022/04/23 06:49:47;;;;;;;29.05;25.92;;;23.80;48.40;;;;;;5052026;28;20167;-77
2022/04/23 06:52:17;;;;;;;35.97;26.92;;;22.30;49.70;;;;;;5052999;28;20466;-80
2022/04/23 06:54:43;;;;;;;31.13;26.40;;;20.70;53.60;;;;;;5052623;28;20535;-79
2022/04/23 06:57:09;;;;;;;38.60;28.13;;;20.20;55.90;;;;;;5052504;28;20033;-77
2022/04/23 06:59:34;;;;;;;32.63;27.38;;;20.20;55.60;;;;;;5053081;28;20052;-77
2022/04/23 07:02:02;;;;;;;32.70;29.23;;;20.40;55.80;;;;;;5052281;28;20523;-78
2022/04/23 07:04:31;;;;;;;33.58;29.77;;;20.20;55.50;;;;;;5052020;28;20047;-77
2022/04/23 07:06:57;;;;;;;36.80;30.02;;;20.20;55.60;;;;;;5051425;28;20112;-77
2022/04/23 07:09:22;;;;;;;36.97;28.50;;;20.40;55.90;;;;;;5052343;28;20121;-78
2022/04/23 07:11:48;;;;;;;34.50;28.48;;;20.90;55.00;;;;;;5049045;28;20083;-77
2022/04/23 07:14:14;;;;;;;34.85;26.52;;;21.40;54.30;;;;;;5041037;28;20044;-78
2022/04/23 07:16:40;;;;;;;32.15;24.95;;;22.00;53.00;;;;;;5065176;28;20029;-78
2022/04/23 07:19:07;;;;;;;32.85;25.48;;;22.60;50.90;;;;;;5058143;28;20017;-77
2022/04/23 07:21:34;;;;;;;37.08;27.33;;;22.70;49.20;;;;;;5035664;28;20039;-79
2022/04/23 07:24:03;;;;;;;;;;;22.70;49.80;;;;;;5034288;28;20386;-79
2022/04/23 07:26:30;;;;;;;30.27;25.55;;;23.00;52.10;;;;;;5033770;28;20286;-77
2022/04/23 07:28:56;;;;;;;34.97;26.38;;;23.20;48.70;;;;;;5051501;28;20033;-79
2022/04/23 07:31:21;;;;;;;27.48;23.25;;;23.70;48.60;;;;;;5033783;28;20480;-78
2022/04/23 07:39:15;;;;;;;28.38;25.45;;;24.30;45.80;;;;;;5051715;28;20032;-77
2022/04/23 07:41:41;;;;;;;31.52;26.40;;;23.30;46.30;;;;;;5032937;28;20033;-77
2022/04/23 07:44:07;;;;;;;39.95;28.05;;;22.30;48.10;;;;;;5050156;28;20029;-78
2022/04/23 07:46:33;;;;;;;28.77;25.65;;;21.70;49.70;;;;;;5051422;28;20029;-78
2022/04/23 07:48:58;;;;;;;35.55;26.85;;;21.40;50.40;;;;;;5051557;28;20409;-78
2022/04/23 07:51:27;;;;;;;32.17;25.38;;;21.30;50.10;;;;;;5051740;28;20025;-79
2022/04/23 07:53:56;;;;;;;33.97;27.40;;;21.10;50.40;;;;;;5053294;28;20025;-79
2022/04/23 07:56:23;;;;;;;32.13;26.27;;;20.60;51.40;;;;;;5051796;28;20075;-79
2022/04/23 07:58:49;;;;;;;36.83;29.33;;;20.10;52.90;;;;;;5050674;28;20029;-79
2022/04/23 08:01:15;;;;;;;38.08;29.50;;;19.60;53.40;;;;;;5051131;28;20067;-79
2022/04/23 08:03:43;;;;;;;39.35;31.13;;;18.90;55.20;;;;;;5051312;28;20029;-78
2022/04/23 08:06:10;;;;;;;33.85;29.35;;;18.40;56.70;;;;;;5033279;28;20031;-78
2022/04/23 08:08:37;;;;;;;35.13;30.77;;;18.60;57.60;;;;;;5051142;28;20089;-79
2022/04/23 08:11:03;;;;;;;39.17;29.60;;;19.10;56.60;;;;;;5051037;28;20071;-79
2022/04/23 08:13:29;;;;;;;38.20;28.77;;;19.20;56.20;;;;;;5050271;28;20021;-78
2022/04/23 08:15:54;;;;;;;35.55;25.95;;;19.00;56.00;;;;;;5051200;28;20440;-78
2022/04/23 08:18:20;;;;;;;35.38;25.35;;;18.80;56.10;;;;;;5051538;28;20386;-79
2022/04/23 08:20:46;;;;;;;28.73;25.27;;;18.80;55.40;;;;;;5051179;28;20096;-79
2022/04/23 08:23:12;;;;;;;40.22;25.63;;;18.80;55.60;;;;;;5050916;28;20402;-79
2022/04/23 08:25:38;;;;;;;28.75;23.58;;;18.90;55.40;;;;;;5051557;28;20108;-79
2022/04/23 08:30:48;;;;;;;32.38;23.30;;;19.00;55.10;;;;;;5051736;28;20102;-79
2022/04/23 08:33:17;;;;;;;35.47;23.38;;;19.30;54.50;;;;;;5037349;28;20078;-80
2022/04/23 08:35:42;;;;;;;27.77;22.75;;;19.60;53.80;;;;;;5053873;28;20053;-79
2022/04/23 08:38:08;;;;;;;36.38;26.73;;;20.10;52.50;;;;;;5054565;28;20502;-79
2022/04/23 08:40:40;;;;;;;27.50;23.48;;;19.80;52.20;;;;;;5054707;28;20391;-78
2022/04/23 08:43:06;;;;;;;34.47;26.48;;;19.60;52.90;;;;;;5054700;28;20355;-78
2022/04/23 08:45:35;;;;;;;28.73;22.90;;;19.30;53.50;;;;;;5036027;28;20132;-80
2022/04/23 08:48:06;;;;;;;29.90;23.00;;;18.90;53.90;;;;;;5054144;28;20489;-78
2022/04/23 08:50:38;;;;;;;31.60;23.90;;;18.30;54.70;;;;;;5036311;28;20040;-77
2022/04/23 08:53:15;;;;;;;27.23;22.52;;;18.00;56.20;;;;;;5054100;28;20025;-79
2022/04/23 08:55:45;;;;;;;23.23;20.85;;;18.10;56.30;;;;;;5036386;28;20025;-78
2022/04/23 08:58:13;;;;;;;26.38;22.55;;;18.30;55.90;;;;;;5054498;28;20036;-78
2022/04/23 09:00:39;;;;;;;28.52;23.52;;;18.60;55.30;;;;;;5053738;28;20068;-80
2022/04/23 09:03:05;;;;;;;30.27;23.67;;;19.10;53.70;;;;;;5054130;28;20498;-80
2022/04/23 09:05:31;;;;;;;26.90;22.20;;;19.20;53.80;;;;;;5054949;28;20422;-84
2022/04/23 09:07:57;;;;;;;34.30;24.67;;;19.20;54.10;;;;;;5053883;28;20021;-75
2022/04/23 09:10:57;;;;;;;25.60;20.90;;;19.70;53.70;;;;;;5053676;28;20530;-77
2022/04/23 09:13:30;;;;;;;26.17;21.73;;;21.00;51.60;;;;;;5034693;28;20096;-75
2022/04/23 09:24:14;;;;;;;31.23;20.75;;;22.90;45.70;;;;;;5071458;28;20440;-78
2022/04/23 09:26:40;;;;;;;23.20;18.45;;;23.30;44.90;;;;;;5077447;28;20028;-77
2022/04/23 09:29:15;;;;;;;26.10;20.65;;;23.10;44.10;;;;;;5074809;28;20055;-77
2022/04/23 09:31:41;;;;;;;25.67;19.40;;;22.80;44.90;;;;;;5074565;28;20028;-76
2022/04/23 09:34:15;;;;;;;25.95;20.67;;;22.20;45.00;;;;;;5060939;28;20029;-77
2022/04/23 09:37:00;;;;;;;27.50;19.45;;;21.50;46.20;;;;;;5052882;28;20102;-76
2022/04/23 09:39:40;;;;;;;21.90;17.40;;;20.70;47.60;;;;;;5053462;28;20032;-77
2022/04/23 09:42:17;;;;;;;26.05;19.58;;;19.60;48.50;;;;;;5052618;28;20431;-76
2022/04/23 09:44:44;;;;;;;24.70;18.40;;;18.20;51.10;;;;;;5053110;28;20029;-76
2022/04/23 09:47:10;;;;;;;26.13;18.48;;;17.30;53.30;;;;;;5035483;28;20086;-79
2022/04/23 09:49:38;;;;;;;31.00;18.95;;;16.60;55.30;;;;;;5053130;28;20475;-81
2022/04/23 09:52:11;;;;;;;23.40;17.88;;;16.30;56.30;;;;;;5052674;28;20025;-81
2022/04/23 09:54:38;;;;;;;24.70;19.58;;;16.20;57.30;;;;;;5035042;28;20483;-80
2022/04/23 09:57:05;;;;;;;27.88;19.45;;;16.20;57.50;;;;;;5052826;28;20132;-81
2022/04/23 09:59:31;;;;;;;27.85;19.50;;;16.20;57.50;;;;;;5054260;28;20399;-79
2022/04/23 10:01:58;;;;;;;27.75;19.70;;;16.30;57.80;;;;;;5065549;28;20029;-79
2022/04/23 10:04:29;;;;;;;22.65;18.70;;;16.40;57.20;;;;;;5033841;28;20112;-80
2022/04/23 10:06:56;;;;;;;29.35;20.17;;;16.60;57.40;;;;;;5044436;28;20018;-80
2022/04/23 10:09:27;;;;;;;26.88;18.45;;;16.70;57.10;;;;;;5052788;28;20040;-81
2022/04/23 10:12:02;;;;;;;25.70;18.60;;;16.90;57.00;;;;;;5052897;28;20113;-81
2022/04/23 10:14:41;;;;;;;23.33;17.60;;;16.80;56.30;;;;;;5052776;28;20475;-82
2022/04/23 10:17:10;;;;;;;30.52;18.88;;;16.90;56.40;;;;;;5053063;28;20044;-81
2022/04/23 10:19:36;;;;;;;21.52;15.50;;;17.50;56.80;;;;;;5034694;28;20036;-77
2022/04/23 10:22:19;;;;;;;23.60;16.80;;;18.50;53.70;;;;;;5051847;28;20486;-79
2022/04/23 10:25:02;;;;;;;28.98;17.88;;;19.60;51.80;;;;;;5052720;28;20032;-77
2022/04/23 10:27:28;;;;;;;21.70;16.15;;;20.30;50.20;;;;;;5050849;28;20107;-78
2022/04/23 10:30:02;;;;;;;21.63;17.65;;;20.50;49.00;;;;;;5041102;28;20044;-78
2022/04/23 10:32:38;;;;;;;24.10;17.98;;;19.80;48.80;;;;;;5052595;28;20115;-77
2022/04/23 10:35:24;;;;;;;29.42;18.88;;;18.90;50.50;;;;;;5036336;28;20037;-77
2022/04/23 10:37:50;;;;;;;30.65;19.10;;;18.30;52.40;;;;;;5032232;28;20033;-79
2022/04/23 10:40:20;;;;;;;27.60;18.70;;;18.00;52.80;;;;;;5043283;28;20509;-78
2022/04/23 10:43:06;;;;;;;31.13;19.13;;;17.80;53.20;;;;;;5051298;28;20039;-79
2022/04/23 10:45:33;;;;;;;27.23;19.23;;;17.10;54.60;;;;;;5051961;28;20039;-80
2022/04/23 10:48:22;;;;;;;33.08;21.30;;;16.90;55.80;;;;;;5052426;28;20431;-80
2022/04/23 10:51:01;;;;;;;34.65;19.92;;;17.20;55.90;;;;;;5052258;28;20106;-75
2022/04/23 10:53:48;;;;;;;25.17;16.80;;;17.60;55.60;;;;;;5051321;28;20393;-78
2022/04/23 10:56:15;;;;;;;20.77;15.05;;;18.10;54.10;;;;;;5050545;28;20033;-75
2022/04/23 10:58:42;;;;;;;22.30;18.25;;;18.10;52.40;;;;;;5052029;28;20033;-77
2022/04/23 11:01:25;;;;;;;21.55;16.73;;;17.80;52.20;;;;;;5034447;28;20029;-74
2022/04/23 11:03:57;;;;;;;20.95;16.52;;;17.70;53.30;;;;;;5052083;28;20021;-74
2022/04/23 11:12:30;;;;;;;22.50;17.05;;;16.70;54.10;;;;;;5020532;28;20049;-78
2022/04/23 11:14:57;;;;;;;26.00;17.38;;;16.60;55.10;;;;;;5051435;28;20025;-77
2022/04/23 11:17:23;;;;;;;25.13;18.38;;;16.70;54.90;;;;;;5033306;28;20025;-76
2022/04/23 11:19:53;;;;;;;24.63;17.73;;;16.70;55.50;;;;;;5051520;28;20037;-77
2022/04/23 11:22:23;;;;;;;19.25;15.50;;;16.90;55.30;;;;;;5051927;28;20374;-77
2022/04/23 11:24:50;;;;;;;20.42;15.10;;;16.90;54.90;;;;;;5051729;28;20029;-76
2022/04/23 11:27:29;;;;;;;26.23;15.93;;;16.70;54.60;;;;;;5051053;28;20074;-77
2022/04/23 11:29:55;;;;;;;21.55;16.33;;;16.60;55.20;;;;;;5051682;28;20084;-77
2022/04/23 11:32:29;;;;;;;25.00;17.05;;;16.80;55.20;;;;;;5050328;28;20025;-76
2022/04/23 11:34:56;;;;;;;28.55;16.85;;;16.80;54.50;;;;;;5048754;28;20055;-76
2022/04/23 11:37:31;;;;;;;25.17;16.77;;;16.70;55.00;;;;;;5051450;28;20029;-77
2022/04/23 11:40:28;;;;;;;26.00;16.98;;;16.80;55.80;;;;;;5037183;28;20502;-78
2022/04/23 11:42:54;;;;;;;18.40;15.95;;;17.00;55.30;;;;;;5055617;28;20100;-79
2022/04/23 11:45:21;;;;;;;23.13;16.15;;;17.10;54.00;;;;;;5052814;28;20056;-78
2022/04/23 11:47:47;;;;;;;19.65;14.75;;;17.20;53.60;;;;;;5045030;28;20131;-79
2022/04/23 11:50:14;;;;;;;26.23;15.40;;;17.20;53.40;;;;;;5031450;28;20150;-79
2022/04/23 11:52:44;;;;;;;23.25;14.38;;;17.20;53.20;;;;;;5035329;28;20037;-74
2022/04/23 11:55:22;;;;;;;18.60;14.80;;;17.20;52.80;;;;;;5040455;28;20171;-78
2022/04/23 11:58:05;;;;;;;19.23;15.98;;;16.90;53.30;;;;;;5051118;28;20033;-78
2022/04/23 12:00:32;;;;;;;20.27;13.98;;;16.80;53.30;;;;;;5050802;28;20116;-79
2022/04/23 12:02:59;;;;;;;22.20;16.13;;;16.80;53.80;;;;;;5033515;28;20028;-79
2022/04/23 12:05:32;;;;;;;19.80;14.25;;;16.80;54.00;;;;;;5053192;28;20553;-79
2022/04/23 12:07:59;;;;;;;26.10;15.23;;;16.90;54.00;;;;;;5055480;28;20078;-79
2022/04/23 12:10:30;;;;;;;20.02;13.75;;;17.10;53.80;;;;;;5055090;28;20033;-77
2022/04/23 12:13:00;;;;;;;20.55;14.48;;;17.20;53.50;;;;;;5055192;28;20031;-77
2022/04/23 12:15:26;;;;;;;16.55;12.90;;;17.30;52.70;;;;;;5054952;28;20112;-77
2022/04/23 12:17:54;;;;;;;22.85;13.75;;;17.30;52.50;;;;;;5036335;28;20112;-76
2022/04/23 12:20:21;;;;;;;20.17;13.60;;;17.20;53.30;;;;;;5054999;28;20025;-76
2022/04/23 12:22:58;;;;;;;20.42;13.88;;;17.20;52.10;;;;;;5054915;28;20104;-77
2022/04/23 12:25:25;;;;;;;16.33;12.27;;;16.90;52.70;;;;;;5054867;28;20025;-78
2022/04/23 12:28:01;;;;;;;19.65;12.80;;;16.80;52.90;;;;;;5055024;28;20385;-76
2022/04/23 12:41:58;;;;;;;18.83;12.52;;;17.30;51.70;;;;;;5054702;28;20521;-79
2022/04/23 12:44:29;;;;;;;18.08;12.82;;;17.40;51.40;;;;;;5054362;28;20064;-79
2022/04/23 12:47:00;;;;;;;16.30;12.05;;;17.40;51.50;;;;;;5054540;28;20029;-81
2022/04/23 12:49:52;;;;;;;19.30;12.13;;;17.40;51.00;;;;;;5053563;28;20033;-78
2022/04/23 12:52:23;;;;;;;18.23;14.57;;;17.00;50.40;;;;;;5054262;28;20056;-76
2022/04/23 12:55:25;;;;;;;18.33;13.48;;;16.60;51.80;;;;;;5036122;28;20078;-79
2022/04/23 12:57:50;;;;;;;16.70;12.35;;;16.40;52.30;;;;;;5054422;28;20025;-78
2022/04/23 13:00:18;;;;;;;21.08;12.95;;;16.30;52.80;;;;;;5054064;28;20075;-80
2022/04/23 13:02:49;;;;;;;20.85;14.20;;;16.40;53.30;;;;;;5036140;28;20505;-77
2022/04/23 13:05:15;;;;;;;18.70;13.38;;;16.50;53.20;;;;;;5053759;28;20033;-75
2022/04/23 13:10:25;;;;;;;18.13;13.43;;;16.60;52.10;;;;;;5053422;28;20047;-78
2022/04/23 13:12:51;;;;;;;14.10;11.20;;;16.60;52.40;;;;;;5053951;28;20457;-77